Miyakejima, Japan

6:41 PM JST on September 21, 2014 (GMT +0900)
Oshima | Change Station
CLOSE
Current Station
Airport
Location: Oshima Airport,
Elevation: 135 ft
Nearby Weather Stations

Elev 135 ft 34.78 °N, 139.36 °E | Updated 1 hour ago

Clear
Clear
73 °F
Feels Like 73 °F
N
7
Wind Variable Wind from ESE

Today
High -- | Low -- °F
--% Chance of Precip.
Yesterday
High -- | Low -- °F
Precip. -- in
5:28 AM 5:40 PM
Waning Crescent, 7% visible
Pressure 30.01 in
Visibility -9999.0 miles
Clouds
Dew Point 61 °F
Humidity 65%
Rainfall 0.00 in
Snow Depth Not available.
UV Not available.
Pollen Not available.
Air Quality Not available.
Flu Activity Not available.
METAR RJTO 210800Z 11006KT CAVOK 23/16 Q1016

More Conditions Fewer Conditions

Pressure 30.01 in
Visibility -9999.0 miles
Clouds
Dew Point 61 °F
Humidity 65%
Rainfall 0.00 in
Snow Depth Not available.
UV Not available.
Pollen Not available.
Air Quality Not available.
Flu Activity Not available.
METAR RJTO 210800Z 11006KT CAVOK 23/16 Q1016

More Conditions Fewer Conditions

10-Day Weather Forecast

Almanac

Astronomy

Sep. 21, 2014 Rise Set
Actual Time 5:28 AM JST 5:40 PM JST
Civil Twilight 5:03 AM JST 6:05 PM JST
Nautical Twilight 4:34 AM JST 6:34 PM JST
Astronomical Twilight 4:04 AM JST 7:04 PM JST
Moon 2:34 AM JST 3:50 PM JST
Length of Visible Light 13h 02m
Length of Day
12h 12m
Tomorrow will be 2m 6s shorter.
Waning Crescent, 7% of the Moon is Illuminated
Today
Waning Crescent
Sep 24
New
Oct 1
First Quarter
Oct 8
Full
Oct 15
Last Quarter

Yesterday's Extremes

Country Highs Country Lows

Community

WunderPhotos

Upload Photos

1,755,106 photos uploaded!

Nearby

Snow Depth

Not available.

Earthquake Activity

City Distance Mag. Time & Date
No recent earthquake activity has been reported nearby.
Minimum magnitude displayed is 2.5.

Coastal Water Temperatures

Place Temperature
No Stations Reporting

Nearby Weather Stations